Wan Hai 508 — 9VJJ6 — position and weather

sailwx.info

Track history (hours):
 
Tides and Currents Weather Stations Pressure Air Temp Water Temp Dewpoint Dewpoint Depression Visibility Wind Speed Wind Dir Waves Ship Positions

Wan Hai 508

Last reported at 2017-Sep-21 20:08 UTC. Time now 2017-Sep-23 12:48 UTC.
Position N 01°12' E 103°39'.

Length 269 m; draft 9.9 m.

Type: Cargo ship. MMSI: 565567000.

Date/timePositionNaut miles runAvg speedWind from/ knotsBaromVisibWave heightAir tempDewpointWater temp
2017-Sep-21 20:08N 01°12' E 103°39'0 1.8
2017-Sep-21 19:59N 01°12' E 103°39'1 1.7
2017-Sep-21 19:30N 01°13' E 103°40'1 2.6
2017-Sep-21 18:58N 01°13' E 103°41'1 3.1
2017-Sep-21 18:30N 01°14' E 103°42'5 2.0
2017-Sep-21 16:04N 01°15' E 103°47'0 0.0
2017-Sep-21 15:50N 01°15' E 103°47'0 0.0
2017-Sep-21 15:24N 01°15' E 103°47'5 1.3
2017-Sep-21 11:24N 01°13' E 103°52'2 4.3
2017-Sep-21 11:00N 01°15' E 103°51'2040.4
2017-Sep-21 10:30N 01°13' E 103°32'815.0
2017-Sep-21 10:00N 01°12' E 103°39'611.3
2017-Sep-21 09:31N 01°15' E 103°44'4 7.2
2017-Sep-21 09:00N 01°15' E 103°47'0 0.5
2017-Sep-21 08:29N 01°15' E 103°47'0 0.0
2017-Sep-21 07:59N 01°15' E 103°47'0 0.0
2017-Sep-21 07:29N 01°15' E 103°47'0 0.0
2017-Sep-21 06:59N 01°15' E 103°47'0 0.0
2017-Sep-21 06:29N 01°15' E 103°47'0 0.0
2017-Sep-21 05:59N 01°15' E 103°47'0 0.0
2017-Sep-21 05:29N 01°15' E 103°47'0 0.0
2017-Sep-21 04:59N 01°15' E 103°47'0 0.0
2017-Sep-21 04:29N 01°15' E 103°47'0 0.0
2017-Sep-21 03:59N 01°15' E 103°47'0 0.0
2017-Sep-21 03:29N 01°15' E 103°47'0 0.0
2017-Sep-21 02:59N 01°15' E 103°47'0 0.0
2017-Sep-21 02:26N 01°15' E 103°47'0 0.0
2017-Sep-21 01:57N 01°15' E 103°47'0 0.8
2017-Sep-21 01:30N 01°15' E 103°47'5 9.3
2017-Sep-21 01:00N 01°13' E 103°51'3 6.8
2017-Sep-21 00:30N 01°16' E 103°50'1 1.0
2017-Sep-20 23:59N 01°16' E 103°50'0 0.0
2017-Sep-20 23:29N 01°16' E 103°50'0 0.0
2017-Sep-20 22:59N 01°16' E 103°50'0 0.0
2017-Sep-20 22:29N 01°16' E 103°50'0 0.0
2017-Sep-20 21:59N 01°16' E 103°50'0 0.0
2017-Sep-20 21:29N 01°16' E 103°50'0 0.0
2017-Sep-20 20:59N 01°16' E 103°50'0 0.0
2017-Sep-20 20:29N 01°16' E 103°50'0 0.0
2017-Sep-20 19:59N 01°16' E 103°50'0 0.0
2017-Sep-20 19:29N 01°16' E 103°50'0 0.0
2017-Sep-20 18:59N 01°16' E 103°50'0 0.0
2017-Sep-20 18:23N 01°16' E 103°50'0 0.0
2017-Sep-20 17:59N 01°16' E 103°50'510.0
2017-Sep-20 17:30N 01°12' E 103°53'1 1.7
2017-Sep-20 17:00N 01°12' E 103°52'1 2.0
2017-Sep-20 16:30N 01°12' E 103°51'1 1.9
2017-Sep-20 16:00N 01°11' E 103°51'5 8.1
2017-Sep-20 15:26N 01°16' E 103°50'0 0.0
2017-Sep-20 14:59N 01°16' E 103°50'0 0.0
2017-Sep-20 13:59N 01°16' E 103°50'0 0.0
2017-Sep-20 13:23N 01°16' E 103°50'0 0.0
2017-Sep-20 12:47N 01°16' E 103°50'0 0.0
2017-Sep-20 12:29N 01°16' E 103°50'0 0.0
2017-Sep-20 11:47N 01°16' E 103°50'0 0.0
2017-Sep-20 11:26N 01°16' E 103°50'0 0.0
2017-Sep-20 10:53N 01°16' E 103°50'0 0.0
2017-Sep-20 10:29N 01°16' E 103°50'0 0.0
2017-Sep-20 09:59N 01°16' E 103°50'0 0.0
2017-Sep-20 09:29N 01°16' E 103°50'0 0.0
2017-Sep-20 08:59N 01°16' E 103°50'0 0.0
2017-Sep-20 08:30N 01°16' E 103°50'1 1.9
2017-Sep-20 08:01N 01°16' E 103°51'3 6.9
2017-Sep-20 07:30N 01°14' E 103°54'3 5.9
2017-Sep-20 07:00N 01°12' E 103°52'4 7.6
2017-Sep-20 06:31N 01°10' E 103°49'4 7.5
2017-Sep-20 06:00N 01°08' E 103°46'4 8.7
2017-Sep-20 05:30N 01°05' E 103°43'5 9.6
2017-Sep-20 05:01N 01°03' E 103°38'611.9
2017-Sep-20 04:30N 01°06' E 103°33'611.7
2017-Sep-20 04:00N 01°09' E 103°28'612.0
2017-Sep-20 03:30N 01°12' E 103°23'712.5
2017-Sep-20 02:58N 01°17' E 103°18'  
Track history (hours):
 
Tides and Currents Weather Stations Pressure Air Temp Water Temp Dewpoint Dewpoint Depression Visibility Wind Speed Wind Dir Waves Ship Positions

Wan Hai 508

Last reported at 2017-Sep-21 20:08 UTC. Time now 2017-Sep-23 12:48 UTC.
Position N 01°12' E 103°39'.

Length 269 m; draft 9.9 m.

Type: Cargo ship. MMSI: 565567000.

Date/timePositionNaut miles runAvg speedWind from/ knotsBaromVisibWave heightAir tempDewpointWater temp
2017-Sep-21 20:08N 01°12' E 103°39'0 1.8
2017-Sep-21 19:59N 01°12' E 103°39'1 1.7
2017-Sep-21 19:30N 01°13' E 103°40'1 2.6
2017-Sep-21 18:58N 01°13' E 103°41'1 3.1
2017-Sep-21 18:30N 01°14' E 103°42'5 2.0
2017-Sep-21 16:04N 01°15' E 103°47'0 0.0
2017-Sep-21 15:50N 01°15' E 103°47'0 0.0
2017-Sep-21 15:24N 01°15' E 103°47'5 1.3
2017-Sep-21 11:24N 01°13' E 103°52'2 4.3
2017-Sep-21 11:00N 01°15' E 103°51'2040.4
2017-Sep-21 10:30N 01°13' E 103°32'815.0
2017-Sep-21 10:00N 01°12' E 103°39'611.3
2017-Sep-21 09:31N 01°15' E 103°44'4 7.2
2017-Sep-21 09:00N 01°15' E 103°47'0 0.5
2017-Sep-21 08:29N 01°15' E 103°47'0 0.0
2017-Sep-21 07:59N 01°15' E 103°47'0 0.0
2017-Sep-21 07:29N 01°15' E 103°47'0 0.0
2017-Sep-21 06:59N 01°15' E 103°47'0 0.0
2017-Sep-21 06:29N 01°15' E 103°47'0 0.0
2017-Sep-21 05:59N 01°15' E 103°47'0 0.0
2017-Sep-21 05:29N 01°15' E 103°47'0 0.0
2017-Sep-21 04:59N 01°15' E 103°47'0 0.0
2017-Sep-21 04:29N 01°15' E 103°47'0 0.0
2017-Sep-21 03:59N 01°15' E 103°47'0 0.0
2017-Sep-21 03:29N 01°15' E 103°47'0 0.0
2017-Sep-21 02:59N 01°15' E 103°47'0 0.0
2017-Sep-21 02:26N 01°15' E 103°47'0 0.0
2017-Sep-21 01:57N 01°15' E 103°47'0 0.8
2017-Sep-21 01:30N 01°15' E 103°47'5 9.3
2017-Sep-21 01:00N 01°13' E 103°51'3 6.8
2017-Sep-21 00:30N 01°16' E 103°50'1 1.0
2017-Sep-20 23:59N 01°16' E 103°50'0 0.0
2017-Sep-20 23:29N 01°16' E 103°50'0 0.0
2017-Sep-20 22:59N 01°16' E 103°50'0 0.0
2017-Sep-20 22:29N 01°16' E 103°50'0 0.0
2017-Sep-20 21:59N 01°16' E 103°50'0 0.0
2017-Sep-20 21:29N 01°16' E 103°50'0 0.0
2017-Sep-20 20:59N 01°16' E 103°50'0 0.0
2017-Sep-20 20:29N 01°16' E 103°50'0 0.0
2017-Sep-20 19:59N 01°16' E 103°50'0 0.0
2017-Sep-20 19:29N 01°16' E 103°50'0 0.0
2017-Sep-20 18:59N 01°16' E 103°50'0 0.0
2017-Sep-20 18:23N 01°16' E 103°50'0 0.0
2017-Sep-20 17:59N 01°16' E 103°50'510.0
2017-Sep-20 17:30N 01°12' E 103°53'1 1.7
2017-Sep-20 17:00N 01°12' E 103°52'1 2.0
2017-Sep-20 16:30N 01°12' E 103°51'1 1.9
2017-Sep-20 16:00N 01°11' E 103°51'5 8.1
2017-Sep-20 15:26N 01°16' E 103°50'0 0.0
2017-Sep-20 14:59N 01°16' E 103°50'0 0.0
2017-Sep-20 13:59N 01°16' E 103°50'0 0.0
2017-Sep-20 13:23N 01°16' E 103°50'0 0.0
2017-Sep-20 12:47N 01°16' E 103°50'0 0.0
2017-Sep-20 12:29N 01°16' E 103°50'0 0.0
2017-Sep-20 11:47N 01°16' E 103°50'0 0.0
2017-Sep-20 11:26N 01°16' E 103°50'0 0.0
2017-Sep-20 10:53N 01°16' E 103°50'0 0.0
2017-Sep-20 10:29N 01°16' E 103°50'0 0.0
2017-Sep-20 09:59N 01°16' E 103°50'0 0.0
2017-Sep-20 09:29N 01°16' E 103°50'0 0.0
2017-Sep-20 08:59N 01°16' E 103°50'0 0.0
2017-Sep-20 08:30N 01°16' E 103°50'1 1.9
2017-Sep-20 08:01N 01°16' E 103°51'3 6.9
2017-Sep-20 07:30N 01°14' E 103°54'3 5.9
2017-Sep-20 07:00N 01°12' E 103°52'4 7.6
2017-Sep-20 06:31N 01°10' E 103°49'4 7.5
2017-Sep-20 06:00N 01°08' E 103°46'4 8.7
2017-Sep-20 05:30N 01°05' E 103°43'5 9.6
2017-Sep-20 05:01N 01°03' E 103°38'611.9
2017-Sep-20 04:30N 01°06' E 103°33'611.7
2017-Sep-20 04:00N 01°09' E 103°28'612.0
2017-Sep-20 03:30N 01°12' E 103°23'712.5
2017-Sep-20 02:58N 01°17' E 103°18'  

Dump ship's entire track history